Time;durP1;ratioP1;P1;durP2;ratioP2;P2;SDS_P1;SDS_P2;PMS_P1;PMS_P2;Temp;Humidity;BMP_temperature;BMP_pressure;BME280_temperature;BME280_humidity;BME280_pressure;Samples;Min_cycle;Max_cycle;Signal;HPM_P1;HPM_P2
2021/03/27 00:00:14;;;;;;;6.32;4.20;;;7.70;95.70;;;;;;5047785;28;20044;-38
2021/03/27 00:02:57;;;;;;;5.22;3.92;;;7.60;95.70;;;;;;5061281;28;20048;-36
2021/03/27 00:05:25;;;;;;;4.75;3.78;;;7.60;96.10;;;;;;5048229;28;20049;-35
2021/03/27 00:08:05;;;;;;;4.40;4.00;;;7.60;95.90;;;;;;5062102;28;20408;-37
2021/03/27 00:10:40;;;;;;;4.13;3.70;;;7.50;95.80;;;;;;5047322;28;20025;-40
2021/03/27 00:13:28;;;;;;;4.15;3.67;;;7.60;95.90;;;;;;5062604;28;20151;-38
2021/03/27 00:15:55;;;;;;;4.70;3.00;;;7.60;95.70;;;;;;5047450;28;20163;-37
2021/03/27 00:18:50;;;;;;;3.40;3.10;;;7.60;95.70;;;;;;5063556;28;20028;-39
2021/03/27 00:21:21;;;;;;;3.13;2.70;;;7.50;95.90;;;;;;5047619;28;20074;-35
2021/03/27 00:24:05;;;;;;;3.65;1.88;;;7.50;96.20;;;;;;5064743;28;20024;-38
2021/03/27 00:26:48;;;;;;;2.63;2.33;;;7.40;96.10;;;;;;5067533;28;20805;-36
2021/03/27 00:29:23;;;;;;;2.90;2.00;;;7.40;96.00;;;;;;5067281;28;20028;-37
2021/03/27 00:31:55;;;;;;;4.15;2.05;;;7.40;96.40;;;;;;5066663;28;20056;-36
2021/03/27 00:34:25;;;;;;;2.75;1.60;;;7.50;96.10;;;;;;5064968;28;20064;-39
2021/03/27 00:36:56;;;;;;;1.95;1.58;;;7.50;96.10;;;;;;5066988;28;20113;-37
2021/03/27 00:39:31;;;;;;;1.85;1.17;;;7.50;96.20;;;;;;5066782;28;20158;-39
2021/03/27 00:42:06;;;;;;;2.25;1.20;;;7.50;96.10;;;;;;5066668;28;20131;-38
2021/03/27 00:44:36;;;;;;;3.47;1.38;;;7.50;96.00;;;;;;5066395;28;20150;-38
2021/03/27 00:47:03;;;;;;;1.33;1.17;;;7.40;95.90;;;;;;5066728;28;20032;-40
2021/03/27 00:49:35;;;;;;;1.30;1.20;;;7.40;96.00;;;;;;5066547;28;20032;-37
2021/03/27 00:52:07;;;;;;;1.83;1.10;;;7.40;96.10;;;;;;5066390;28;20059;-39
2021/03/27 00:54:43;;;;;;;1.40;1.10;;;7.40;96.10;;;;;;5066527;28;20032;-38
2021/03/27 00:57:21;;;;;;;1.65;1.10;;;7.40;96.00;;;;;;5046728;28;20024;-37
2021/03/27 00:59:55;;;;;;;1.77;1.20;;;7.40;96.10;;;;;;5062251;28;20174;-39
2021/03/27 01:02:21;;;;;;;1.60;0.90;;;7.40;96.10;;;;;;5047077;28;20029;-38
2021/03/27 01:04:48;;;;;;;1.67;0.90;;;7.40;96.10;;;;;;5061061;28;20058;-37
2021/03/27 01:07:14;;;;;;;1.40;1.00;;;7.40;96.20;;;;;;5066467;28;20424;-38
2021/03/27 01:09:43;;;;;;;2.47;1.27;;;7.40;96.20;;;;;;5066467;28;20028;-36
2021/03/27 01:12:25;;;;;;;1.80;1.30;;;7.30;96.40;;;;;;5066113;28;20349;-36
2021/03/27 01:14:55;;;;;;;1.73;1.60;;;7.30;96.40;;;;;;5066241;28;20033;-37
2021/03/27 01:17:25;;;;;;;4.20;2.45;;;7.30;96.50;;;;;;5066827;28;20065;-40
2021/03/27 01:19:55;;;;;;;3.55;2.72;;;7.30;96.60;;;;;;5065408;28;20025;-37
2021/03/27 01:22:23;;;;;;;5.10;3.85;;;7.30;96.70;;;;;;5066723;28;20102;-34
2021/03/27 01:24:49;;;;;;;5.75;4.25;;;7.30;96.80;;;;;;5065882;28;20486;-34
2021/03/27 01:27:29;;;;;;;5.75;4.53;;;7.30;96.70;;;;;;5065818;28;20051;-36
2021/03/27 01:30:21;;;;;;;6.28;5.10;;;7.30;96.70;;;;;;5065867;28;20961;-37
2021/03/27 01:33:03;;;;;;;6.90;4.85;;;7.30;96.80;;;;;;5065596;28;20036;-38
2021/03/27 01:35:41;;;;;;;6.75;4.80;;;7.30;96.70;;;;;;5065681;28;20494;-37
2021/03/27 01:38:13;;;;;;;10.85;5.78;;;7.40;96.80;;;;;;5065836;28;20036;-38
2021/03/27 01:41:10;;;;;;;7.85;5.63;;;7.40;96.80;;;;;;5064926;28;20032;-36
2021/03/27 01:44:10;;;;;;;11.55;6.22;;;7.40;96.90;;;;;;5046463;28;20037;-39
2021/03/27 01:47:07;;;;;;;9.48;6.30;;;7.30;96.80;;;;;;5064194;28;20024;-37
2021/03/27 01:49:59;;;;;;;10.00;7.15;;;7.30;96.90;;;;;;5065809;28;20039;-41
2021/03/27 01:52:28;;;;;;;11.45;7.63;;;7.30;96.80;;;;;;5065576;28;20040;-37
2021/03/27 01:55:15;;;;;;;10.20;7.57;;;7.30;96.80;;;;;;5064975;28;20090;-38
2021/03/27 01:58:01;;;;;;;12.73;9.13;;;7.40;96.80;;;;;;5064519;28;20111;-36
2021/03/27 02:00:33;;;;;;;12.90;9.10;;;7.40;96.80;;;;;;5065212;28;20460;-37
2021/03/27 02:03:28;;;;;;;13.15;9.75;;;7.40;96.70;;;;;;5054315;28;20067;-38
2021/03/27 02:06:04;;;;;;;14.73;10.27;;;7.40;96.70;;;;;;5065006;28;20028;-38
2021/03/27 02:08:41;;;;;;;16.92;10.35;;;7.40;96.90;;;;;;5065358;28;20101;-36
2021/03/27 02:11:31;;;;;;;14.13;10.55;;;7.30;96.80;;;;;;5065312;28;20035;-37
2021/03/27 02:14:11;;;;;;;14.27;10.88;;;7.30;96.90;;;;;;5064944;28;20040;-38
2021/03/27 02:16:44;;;;;;;14.88;10.75;;;7.30;97.00;;;;;;5064600;28;20463;-35
2021/03/27 02:19:22;;;;;;;14.80;10.75;;;7.30;97.00;;;;;;5065026;28;20485;-37
2021/03/27 02:22:11;;;;;;;14.02;10.60;;;7.30;96.90;;;;;;5064258;28;20115;-38
2021/03/27 02:24:45;;;;;;;14.73;10.55;;;7.30;96.90;;;;;;5064817;28;20040;-37
2021/03/27 02:27:22;;;;;;;20.83;10.80;;;7.30;96.70;;;;;;5065061;28;20024;-37
2021/03/27 02:29:57;;;;;;;12.73;8.80;;;7.30;96.60;;;;;;5064314;28;20084;-34
2021/03/27 02:33:10;;;;;;;11.32;8.52;;;7.20;96.20;;;;;;5064863;28;20171;-38
2021/03/27 02:36:16;;;;;;;13.15;8.60;;;7.00;96.60;;;;;;5044823;28;20044;-36
2021/03/27 02:38:52;;;;;;;15.07;10.30;;;6.80;96.70;;;;;;5055209;28;20042;-37
2021/03/27 02:41:30;;;;;;;14.55;9.27;;;6.60;97.20;;;;;;5064693;28;20036;-38
2021/03/27 02:44:04;;;;;;;14.60;9.40;;;6.50;97.30;;;;;;5061222;28;20055;-36
2021/03/27 02:46:37;;;;;;;14.23;9.77;;;6.50;97.70;;;;;;5064893;28;20673;-36
2021/03/27 02:49:28;;;;;;;13.18;9.85;;;6.50;97.90;;;;;;5060989;28;20024;-39
2021/03/27 02:52:23;;;;;;;17.15;10.35;;;6.50;98.00;;;;;;5064121;28;20028;-37
2021/03/27 02:55:19;;;;;;;16.17;10.02;;;6.50;97.90;;;;;;5054453;28;20036;-39
2021/03/27 02:57:56;;;;;;;16.50;10.43;;;6.50;98.10;;;;;;5063904;28;20043;-37
2021/03/27 03:00:55;;;;;;;16.00;10.05;;;6.60;98.20;;;;;;5065194;28;20047;-38
2021/03/27 03:03:29;;;;;;;15.35;10.30;;;6.60;98.20;;;;;;5064293;28;20040;-32
2021/03/27 03:06:01;;;;;;;16.90;8.80;;;6.60;98.20;;;;;;5063855;28;20457;-37
2021/03/27 03:08:35;;;;;;;12.73;9.52;;;6.50;98.00;;;;;;5064311;28;20029;-34
2021/03/27 03:11:11;;;;;;;13.52;9.50;;;6.50;98.00;;;;;;5064551;28;20024;-38
2021/03/27 03:13:41;;;;;;;15.57;9.35;;;6.50;97.90;;;;;;5064161;28;20040;-35
2021/03/27 03:16:36;;;;;;;13.48;9.20;;;6.50;98.10;;;;;;5064169;28;20087;-37
2021/03/27 03:19:21;;;;;;;14.63;9.93;;;6.50;98.10;;;;;;5064082;28;20377;-35
2021/03/27 03:22:13;;;;;;;11.75;9.20;;;6.40;98.00;;;;;;5064329;28;20371;-39
2021/03/27 03:24:47;;;;;;;12.23;8.90;;;6.40;98.10;;;;;;5064219;28;20063;-35
2021/03/27 03:27:50;;;;;;;13.88;9.68;;;6.40;98.00;;;;;;5064335;28;20028;-35
2021/03/27 03:30:28;;;;;;;13.90;8.63;;;6.40;98.10;;;;;;5063039;28;20055;-35
2021/03/27 03:33:18;;;;;;;14.73;9.85;;;6.50;98.10;;;;;;5063630;28;20408;-36
2021/03/27 03:36:00;;;;;;;16.70;8.98;;;6.50;98.10;;;;;;5064361;28;20036;-35
2021/03/27 03:39:07;;;;;;;15.23;8.93;;;6.60;98.10;;;;;;5064535;28;20028;-40
2021/03/27 03:42:30;;;;;;;16.67;9.00;;;6.60;97.90;;;;;;5055717;28;20076;-39
2021/03/27 03:45:19;;;;;;;21.20;10.20;;;6.70;97.90;;;;;;5063580;28;20412;-36
2021/03/27 03:48:04;;;;;;;14.70;8.85;;;6.70;97.90;;;;;;5043246;28;20607;-35
2021/03/27 03:50:47;;;;;;;13.48;9.60;;;6.70;97.80;;;;;;5060681;28;20029;-38
2021/03/27 03:53:29;;;;;;;17.65;9.98;;;6.80;97.80;;;;;;5064246;28;20036;-33
2021/03/27 03:56:09;;;;;;;17.17;10.23;;;6.80;97.80;;;;;;5064055;28;20115;-35
2021/03/27 03:58:53;;;;;;;16.45;10.82;;;6.90;97.70;;;;;;5063816;28;20159;-37
2021/03/27 04:01:21;;;;;;;15.70;10.35;;;6.90;97.60;;;;;;5062493;28;20037;-33
2021/03/27 04:03:59;;;;;;;20.83;10.65;;;6.90;97.60;;;;;;5063702;28;20039;-37
2021/03/27 04:06:28;;;;;;;17.33;10.13;;;6.80;97.60;;;;;;5063460;28;20085;-34
2021/03/27 04:09:09;;;;;;;16.05;10.00;;;6.90;97.60;;;;;;5063923;28;20081;-35
2021/03/27 04:12:02;;;;;;;18.75;10.68;;;6.90;97.50;;;;;;5064216;28;20062;-38
2021/03/27 04:14:49;;;;;;;17.70;10.15;;;6.90;97.50;;;;;;5063381;28;20036;-37
2021/03/27 04:17:32;;;;;;;15.75;9.73;;;6.90;97.40;;;;;;5062704;28;20099;-36
2021/03/27 04:20:13;;;;;;;15.88;10.00;;;6.90;97.40;;;;;;5063717;28;20056;-38
2021/03/27 04:22:58;;;;;;;18.58;11.05;;;6.90;97.40;;;;;;5057139;28;20025;-36
2021/03/27 04:25:48;;;;;;;20.40;10.27;;;6.90;97.40;;;;;;5067618;28;20328;-38
2021/03/27 04:28:19;;;;;;;15.65;8.90;;;6.90;97.30;;;;;;5067457;28;20104;-35
2021/03/27 04:31:07;;;;;;;16.33;9.30;;;6.90;97.30;;;;;;5066359;28;20630;-35
2021/03/27 04:33:46;;;;;;;19.33;9.68;;;6.90;97.30;;;;;;5067168;28;20037;-34
2021/03/27 04:36:26;;;;;;;19.95;9.38;;;6.80;97.30;;;;;;5067269;28;20062;-36
2021/03/27 04:39:03;;;;;;;15.50;8.63;;;6.80;97.40;;;;;;5067177;28;20032;-35
2021/03/27 04:41:47;;;;;;;13.35;8.57;;;6.80;97.40;;;;;;5066958;28;20155;-37
2021/03/27 04:44:37;;;;;;;18.27;9.88;;;6.70;97.30;;;;;;5066607;28;20028;-34
2021/03/27 04:47:20;;;;;;;16.23;8.27;;;6.80;97.40;;;;;;5067057;28;20046;-37
2021/03/27 04:49:53;;;;;;;;;;;6.70;97.30;;;;;;5067220;28;20024;-39
2021/03/27 04:52:32;;;;;;;18.20;8.07;;;6.80;97.40;;;;;;5066602;28;20042;-35
2021/03/27 04:55:24;;;;;;;18.83;8.07;;;6.70;97.30;;;;;;5047211;28;20037;-37
2021/03/27 04:58:06;;;;;;;15.50;7.85;;;6.70;97.40;;;;;;5064190;28;20028;-37
2021/03/27 05:00:45;;;;;;;17.42;7.95;;;6.70;97.30;;;;;;5066574;28;20052;-38
2021/03/27 05:03:25;;;;;;;12.70;7.65;;;6.80;97.30;;;;;;5066605;28;20032;-35
2021/03/27 05:06:08;;;;;;;14.73;7.30;;;6.80;97.20;;;;;;5066994;28;20024;-35
2021/03/27 05:08:58;;;;;;;15.23;6.45;;;6.80;97.20;;;;;;5066273;28;20085;-32
2021/03/27 05:11:26;;;;;;;11.63;5.40;;;6.80;97.10;;;;;;5064622;28;20195;-36
2021/03/27 05:13:56;;;;;;;15.00;6.63;;;6.90;97.10;;;;;;5062826;28;20038;-40
2021/03/27 05:16:31;;;;;;;20.33;6.07;;;6.90;96.90;;;;;;5067061;28;20028;-38
2021/03/27 05:19:11;;;;;;;13.95;5.25;;;7.00;96.80;;;;;;5065486;28;20032;-38
2021/03/27 05:21:58;;;;;;;12.55;5.65;;;7.00;96.80;;;;;;5066184;28;20040;-35
2021/03/27 05:24:57;;;;;;;11.98;5.70;;;7.00;96.90;;;;;;5064265;28;20164;-37
2021/03/27 05:27:38;;;;;;;11.60;4.60;;;7.00;96.90;;;;;;5066467;28;20024;-38
2021/03/27 05:30:22;;;;;;;13.10;4.85;;;7.00;97.10;;;;;;5056800;28;20059;-39
2021/03/27 05:32:54;;;;;;;12.13;4.10;;;6.90;97.10;;;;;;5064349;28;20024;-35
2021/03/27 05:35:33;;;;;;;10.73;4.28;;;6.80;97.30;;;;;;5066879;28;20078;-34
2021/03/27 05:38:21;;;;;;;11.38;3.13;;;6.70;97.20;;;;;;5064303;28;20013;-37
2021/03/27 05:41:14;;;;;;;11.20;3.45;;;6.50;97.20;;;;;;5065366;28;20111;-39
2021/03/27 05:43:52;;;;;;;9.50;3.65;;;6.40;97.10;;;;;;5066282;28;20077;-36
2021/03/27 05:46:45;;;;;;;8.52;3.70;;;6.30;97.20;;;;;;5065737;28;20106;-35
2021/03/27 05:49:39;;;;;;;10.55;2.90;;;6.20;97.30;;;;;;5065892;28;20048;-33
2021/03/27 05:52:44;;;;;;;7.38;3.10;;;6.10;97.40;;;;;;5045965;28;20029;-36
2021/03/27 05:55:35;;;;;;;13.80;3.35;;;6.10;97.60;;;;;;5044344;28;20051;-35
2021/03/27 05:58:29;;;;;;;6.07;3.20;;;6.00;97.70;;;;;;5065776;28;20055;-36
2021/03/27 06:01:00;;;;;;;12.00;3.35;;;6.00;97.80;;;;;;5054475;28;20559;-34
2021/03/27 06:04:09;;;;;;;7.22;2.83;;;6.10;97.80;;;;;;5065455;28;20077;-39
2021/03/27 06:07:22;;;;;;;10.27;2.80;;;6.20;97.80;;;;;;5059014;28;20134;-39
2021/03/27 06:10:28;;;;;;;16.48;3.80;;;6.20;97.70;;;;;;5064886;28;20040;-36
2021/03/27 06:13:15;;;;;;;12.27;2.97;;;6.30;97.70;;;;;;5045549;28;20104;-35
2021/03/27 06:15:40;;;;;;;10.35;2.88;;;6.40;97.50;;;;;;5064479;28;20063;-38
2021/03/27 06:18:16;;;;;;;11.93;2.85;;;6.40;96.90;;;;;;5065212;28;20075;-35
2021/03/27 06:20:51;;;;;;;8.75;3.78;;;6.40;96.70;;;;;;5065316;28;20034;-38
2021/03/27 06:23:25;;;;;;;8.38;2.38;;;6.40;96.90;;;;;;5065240;28;20122;-33
2021/03/27 06:26:15;;;;;;;8.75;2.15;;;6.40;96.80;;;;;;5065409;28;20025;-39
2021/03/27 06:29:12;;;;;;;9.52;2.60;;;6.40;96.60;;;;;;5064946;28;20028;-37
2021/03/27 06:32:20;;;;;;;9.98;2.45;;;6.30;96.00;;;;;;5065501;28;20032;-37
2021/03/27 06:35:05;;;;;;;7.57;2.30;;;6.30;95.90;;;;;;5065233;28;20127;-36
2021/03/27 06:38:04;;;;;;;9.70;2.30;;;6.20;96.00;;;;;;5064769;28;20036;-38
2021/03/27 06:41:01;;;;;;;7.40;2.33;;;6.20;96.00;;;;;;5064837;28;20021;-38
2021/03/27 06:43:30;;;;;;;9.75;2.60;;;6.10;95.90;;;;;;5064225;28;20115;-37
2021/03/27 06:46:32;;;;;;;8.38;2.35;;;6.00;95.70;;;;;;5064880;28;20043;-38
2021/03/27 06:49:26;;;;;;;8.75;2.33;;;5.90;95.80;;;;;;5044522;28;20083;-39
2021/03/27 06:51:57;;;;;;;8.80;2.05;;;5.80;95.80;;;;;;5064279;28;20036;-38
2021/03/27 06:54:30;;;;;;;13.18;2.20;;;5.70;95.90;;;;;;5065308;28;20052;-35
2021/03/27 06:57:23;;;;;;;5.30;2.22;;;5.70;96.10;;;;;;5063675;28;20036;-34
2021/03/27 07:00:09;;;;;;;7.60;3.35;;;5.70;96.20;;;;;;5064695;28;20093;-35
2021/03/27 07:02:54;;;;;;;5.80;2.03;;;5.70;96.20;;;;;;5064370;28;20048;-37
2021/03/27 07:05:57;;;;;;;10.60;2.30;;;5.70;96.10;;;;;;5064092;28;20460;-37
2021/03/27 07:08:31;;;;;;;7.07;2.03;;;5.60;96.20;;;;;;5056073;28;20025;-38
2021/03/27 07:11:23;;;;;;;9.18;2.95;;;5.60;96.20;;;;;;5063995;28;20689;-37
2021/03/27 07:14:17;;;;;;;6.87;2.23;;;5.50;96.30;;;;;;5064789;28;20040;-31
2021/03/27 07:17:23;;;;;;;5.50;1.58;;;5.50;96.60;;;;;;5064509;28;20266;-42
2021/03/27 07:19:58;;;;;;;8.65;2.55;;;5.60;96.50;;;;;;5044652;28;20155;-37
2021/03/27 07:22:44;;;;;;;9.98;2.45;;;5.70;96.50;;;;;;5059722;28;20043;-42
2021/03/27 07:25:47;;;;;;;6.72;2.03;;;5.70;96.60;;;;;;5044226;28;20048;-38
2021/03/27 07:28:18;;;;;;;5.65;2.10;;;5.80;96.90;;;;;;5060269;28;20078;-40
2021/03/27 07:31:22;;;;;;;11.13;2.42;;;5.90;96.80;;;;;;5063125;28;20025;-36
2021/03/27 07:34:22;;;;;;;7.45;2.78;;;6.10;96.70;;;;;;5061278;28;20040;-37
2021/03/27 07:37:06;;;;;;;10.05;2.97;;;6.30;96.50;;;;;;5062545;28;20063;-36
2021/03/27 07:39:49;;;;;;;8.63;3.05;;;6.50;96.20;;;;;;5063299;28;20025;-37
2021/03/27 07:42:41;;;;;;;8.82;2.83;;;6.70;95.90;;;;;;5063270;28;20064;-39
2021/03/27 07:45:13;;;;;;;4.55;1.92;;;6.80;95.70;;;;;;5063338;28;20346;-35
2021/03/27 07:47:55;;;;;;;8.65;2.55;;;6.90;95.60;;;;;;5058443;28;20040;-38
2021/03/27 07:50:40;;;;;;;8.27;2.55;;;7.00;95.00;;;;;;5063478;28;20036;-39
2021/03/27 07:53:28;;;;;;;9.77;2.35;;;7.00;94.90;;;;;;5062308;28;20036;-37
2021/03/27 07:56:19;;;;;;;4.80;2.60;;;7.00;95.00;;;;;;5063785;28;20456;-38
2021/03/27 07:59:22;;;;;;;9.98;2.20;;;7.10;94.60;;;;;;5063643;28;20742;-40
2021/03/27 08:02:24;;;;;;;10.35;2.17;;;7.10;94.60;;;;;;5062305;28;20049;-36
2021/03/27 08:05:24;;;;;;;8.63;2.30;;;7.20;94.60;;;;;;5067386;28;20032;-38
2021/03/27 08:08:27;;;;;;;10.02;2.63;;;7.20;94.40;;;;;;5066700;28;20079;-39
2021/03/27 08:10:53;;;;;;;12.85;2.50;;;7.20;93.90;;;;;;5067324;28;20041;-39
2021/03/27 08:14:00;;;;;;;11.77;2.35;;;7.20;93.90;;;;;;5067217;28;20021;-39
2021/03/27 08:16:53;;;;;;;10.93;2.60;;;7.30;94.00;;;;;;5067426;28;20060;-34
2021/03/27 08:19:30;;;;;;;10.48;2.45;;;7.30;93.70;;;;;;5067955;28;20032;-37
2021/03/27 08:22:37;;;;;;;11.90;2.30;;;7.40;93.60;;;;;;5055524;28;20097;-41
2021/03/27 08:25:20;;;;;;;12.77;2.65;;;7.40;93.60;;;;;;5066619;28;20032;-38
2021/03/27 08:28:03;;;;;;;8.35;2.55;;;7.50;93.70;;;;;;5067063;28;20029;-40
2021/03/27 08:31:09;;;;;;;11.50;2.53;;;7.50;93.90;;;;;;5063130;28;20124;-38
2021/03/27 08:34:15;;;;;;;11.90;2.33;;;7.60;93.80;;;;;;5066878;28;20624;-38
2021/03/27 08:37:02;;;;;;;11.10;2.38;;;7.60;93.80;;;;;;5061042;28;20067;-36
2021/03/27 08:39:55;;;;;;;10.07;2.45;;;7.60;93.20;;;;;;5067158;28;20109;-36
2021/03/27 08:42:26;;;;;;;6.68;2.67;;;7.40;92.20;;;;;;5066950;28;20468;-44
2021/03/27 08:45:24;;;;;;;10.23;2.33;;;7.30;91.50;;;;;;5066933;28;20105;-37
2021/03/27 08:48:03;;;;;;;10.07;2.50;;;7.10;91.60;;;;;;5046970;28;20480;-38
2021/03/27 08:50:40;;;;;;;8.45;1.90;;;7.00;92.10;;;;;;5063549;28;20044;-39
2021/03/27 08:53:39;;;;;;;7.32;1.92;;;6.90;92.20;;;;;;5047105;28;20027;-39
2021/03/27 08:56:16;;;;;;;7.60;1.88;;;7.00;92.30;;;;;;5066107;28;20025;-39
2021/03/27 08:59:15;;;;;;;11.07;1.88;;;7.10;92.30;;;;;;5067094;28;20228;-39
2021/03/27 09:01:59;;;;;;;9.52;1.88;;;7.20;91.90;;;;;;5064789;28;20131;-38
2021/03/27 09:05:05;;;;;;;5.57;1.55;;;7.10;92.40;;;;;;5066250;28;20032;-36
2021/03/27 09:07:44;;;;;;;5.63;1.65;;;7.10;92.80;;;;;;5057706;28;20052;-39
2021/03/27 09:10:41;;;;;;;9.73;2.30;;;7.00;93.00;;;;;;5066025;28;20040;-37
2021/03/27 09:13:09;;;;;;;7.05;1.80;;;6.90;93.10;;;;;;5066529;28;20039;-42
2021/03/27 09:16:07;;;;;;;5.40;2.22;;;6.80;93.40;;;;;;5066374;28;20459;-35
2021/03/27 09:19:05;;;;;;;8.73;2.38;;;6.80;93.80;;;;;;5066297;28;20033;-39
2021/03/27 09:21:53;;;;;;;6.78;2.03;;;6.70;94.10;;;;;;5048965;28;20040;-41
2021/03/27 09:24:42;;;;;;;12.88;2.63;;;6.80;94.30;;;;;;5046256;28;20076;-37
2021/03/27 09:27:39;;;;;;;7.93;2.42;;;6.90;94.30;;;;;;5065694;28;20025;-36
2021/03/27 09:30:25;;;;;;;10.02;3.20;;;7.10;94.00;;;;;;5066495;28;20050;-35
2021/03/27 09:33:24;;;;;;;7.32;1.80;;;7.40;93.50;;;;;;5065060;28;20115;-37
2021/03/27 09:36:07;;;;;;;8.50;2.38;;;7.60;92.70;;;;;;5065825;28;20107;-40
2021/03/27 09:38:51;;;;;;;10.27;2.35;;;7.70;92.30;;;;;;5065787;28;20049;-38
2021/03/27 09:41:46;;;;;;;10.18;2.65;;;7.80;92.10;;;;;;5066581;28;20063;-38
2021/03/27 09:44:31;;;;;;;8.35;2.40;;;7.80;92.40;;;;;;5066510;28;20031;-38
2021/03/27 09:47:19;;;;;;;12.90;2.55;;;7.90;92.30;;;;;;5065199;28;20052;-37
2021/03/27 09:50:22;;;;;;;10.05;2.72;;;8.10;92.10;;;;;;5065720;28;20036;-40
2021/03/27 09:53:00;;;;;;;12.40;3.35;;;8.40;92.20;;;;;;5064798;28;20031;-38
2021/03/27 09:55:41;;;;;;;12.98;3.00;;;8.60;91.70;;;;;;5065606;28;20089;-38
2021/03/27 09:58:12;;;;;;;10.90;2.30;;;8.70;91.50;;;;;;5065082;28;20055;-40
2021/03/27 10:00:55;;;;;;;9.40;2.28;;;8.60;90.70;;;;;;5063354;28;20284;-37
2021/03/27 10:03:51;;;;;;;6.13;2.08;;;8.60;89.10;;;;;;5065915;28;20028;-39
2021/03/27 10:06:31;;;;;;;9.60;2.13;;;8.50;87.10;;;;;;5065294;28;20036;-40
2021/03/27 10:09:25;;;;;;;7.72;1.90;;;8.50;86.20;;;;;;5063245;28;20078;-38
2021/03/27 10:11:59;;;;;;;7.93;2.22;;;8.50;86.20;;;;;;5065660;28;20013;-38
2021/03/27 10:14:34;;;;;;;10.02;2.28;;;8.50;85.30;;;;;;5054274;28;20517;-39
2021/03/27 10:17:26;;;;;;;10.82;2.03;;;8.70;82.90;;;;;;5064972;28;20179;-40
2021/03/27 10:19:52;;;;;;;4.43;1.47;;;8.80;78.20;;;;;;5056408;28;20105;-38
2021/03/27 10:22:29;;;;;;;7.47;3.00;;;8.90;79.30;;;;;;5065211;28;20055;-34
2021/03/27 10:25:09;;;;;;;7.53;1.60;;;9.00;80.00;;;;;;5064865;28;20131;-37
2021/03/27 10:28:00;;;;;;;10.98;2.22;;;9.00;80.50;;;;;;5064385;28;20028;-38
2021/03/27 10:30:31;;;;;;;10.40;1.95;;;9.00;78.80;;;;;;5064863;28;20126;-39
2021/03/27 10:33:21;;;;;;;7.40;1.60;;;8.90;75.00;;;;;;5064915;28;20028;-37
2021/03/27 10:35:46;;;;;;;8.23;2.00;;;8.80;74.90;;;;;;5064319;28;20093;-38
2021/03/27 10:38:35;;;;;;;7.82;1.50;;;8.80;75.60;;;;;;5065066;28;20541;-38
2021/03/27 10:41:09;;;;;;;5.95;1.73;;;8.80;74.30;;;;;;5065399;28;20028;-39
2021/03/27 10:44:10;;;;;;;8.73;1.92;;;8.90;75.60;;;;;;5064334;28;20056;-38
2021/03/27 10:46:40;;;;;;;8.63;1.58;;;9.10;73.40;;;;;;5064748;28;20046;-35
2021/03/27 10:49:22;;;;;;;7.75;1.77;;;9.10;71.60;;;;;;5064507;28;20037;-39
2021/03/27 10:52:13;;;;;;;6.22;1.50;;;9.10;71.30;;;;;;5064781;28;20380;-39
2021/03/27 10:54:53;;;;;;;8.82;1.80;;;9.20;70.80;;;;;;5064569;28;20043;-39
2021/03/27 10:57:22;;;;;;;6.07;1.55;;;9.30;70.70;;;;;;5044936;28;20021;-38
2021/03/27 11:00:06;;;;;;;5.55;1.38;;;9.30;68.90;;;;;;5060620;28;20788;-39
2021/03/27 11:02:58;;;;;;;7.55;1.70;;;9.40;70.00;;;;;;5044372;28;20523;-37
2021/03/27 11:05:38;;;;;;;4.50;1.40;;;9.50;70.40;;;;;;5064136;28;20573;-39
2021/03/27 11:08:22;;;;;;;7.10;1.70;;;9.60;70.40;;;;;;5064898;28;20028;-39
2021/03/27 11:11:06;;;;;;;4.45;1.27;;;9.70;68.80;;;;;;5064216;28;20033;-37
2021/03/27 11:13:37;;;;;;;4.53;1.55;;;9.60;69.60;;;;;;5064303;28;20029;-39
2021/03/27 11:16:27;;;;;;;5.80;1.38;;;9.60;68.70;;;;;;5061808;28;20048;-37
2021/03/27 11:19:08;;;;;;;6.75;1.30;;;9.50;69.60;;;;;;5064727;28;20036;-37
2021/03/27 11:22:01;;;;;;;6.65;1.52;;;9.60;70.10;;;;;;5064650;28;20107;-38
2021/03/27 11:24:43;;;;;;;5.35;1.77;;;9.70;70.80;;;;;;5064205;28;20029;-38
2021/03/27 11:27:26;;;;;;;8.60;1.53;;;10.00;70.20;;;;;;5064752;28;20380;-38
2021/03/27 11:30:18;;;;;;;6.78;1.80;;;10.20;67.50;;;;;;5064002;28;20464;-37
2021/03/27 11:33:10;;;;;;;8.75;2.17;;;10.30;67.20;;;;;;5064045;28;20029;-39
2021/03/27 11:35:39;;;;;;;6.22;1.58;;;10.40;66.70;;;;;;5064060;28;20059;-39
2021/03/27 11:38:36;;;;;;;10.98;2.08;;;10.40;67.30;;;;;;5064028;28;20025;-39
2021/03/27 11:41:20;;;;;;;8.00;1.70;;;10.30;67.20;;;;;;5063973;28;20043;-39
2021/03/27 11:44:10;;;;;;;9.35;1.90;;;10.10;67.60;;;;;;5044198;28;20124;-39
2021/03/27 11:46:52;;;;;;;10.07;2.75;;;9.90;69.40;;;;;;5061856;28;20156;-39
2021/03/27 11:49:27;;;;;;;7.65;1.90;;;9.60;71.50;;;;;;5064852;28;20406;-39
2021/03/27 11:52:01;;;;;;;8.65;2.03;;;9.40;73.30;;;;;;5063182;28;20470;-36
2021/03/27 11:54:53;;;;;;;7.25;2.00;;;9.30;74.50;;;;;;5064322;28;20135;-38
2021/03/27 11:57:21;;;;;;;7.20;1.77;;;9.00;76.60;;;;;;5063715;28;20107;-36
2021/03/27 12:03:46;;;;;;;8.38;1.90;;;8.60;79.90;;;;;;5054877;28;20040;-34
2021/03/27 12:06:33;;;;;;;8.23;1.95;;;8.50;80.50;;;;;;5064517;28;20118;-35
2021/03/27 12:09:19;;;;;;;8.43;1.60;;;8.40;82.10;;;;;;5064215;28;20024;-38
2021/03/27 12:11:57;;;;;;;10.00;1.90;;;8.50;82.20;;;;;;5064056;28;20036;-35
2021/03/27 12:14:47;;;;;;;10.32;2.05;;;8.60;82.30;;;;;;5064330;28;20064;-35
2021/03/27 12:17:45;;;;;;;7.13;1.88;;;8.70;80.60;;;;;;5063922;28;20028;-38
2021/03/27 12:20:40;;;;;;;8.70;2.05;;;8.70;81.30;;;;;;5039044;28;20033;-37
2021/03/27 12:23:35;;;;;;;7.97;1.83;;;8.70;81.00;;;;;;5062829;28;20079;-38
2021/03/27 12:26:27;;;;;;;12.30;2.05;;;8.50;81.70;;;;;;5063559;28;20024;-38
2021/03/27 12:29:17;;;;;;;9.02;2.28;;;8.40;82.00;;;;;;5052619;28;20066;-38
2021/03/27 12:31:59;;;;;;;9.07;2.10;;;8.30;83.40;;;;;;5064019;28;20029;-35
2021/03/27 12:34:35;;;;;;;9.82;1.95;;;8.10;84.40;;;;;;5063086;28;20575;-38
2021/03/27 12:37:26;;;;;;;8.77;2.10;;;8.00;84.90;;;;;;5063418;28;20105;-38
2021/03/27 12:40:16;;;;;;;9.27;2.20;;;8.00;85.90;;;;;;5063640;28;20032;-35
2021/03/27 12:42:47;;;;;;;10.70;2.17;;;8.10;87.40;;;;;;5065212;28;20035;-34
2021/03/27 12:45:21;;;;;;;11.90;2.50;;;8.20;87.10;;;;;;5067223;28;20025;-37
2021/03/27 12:47:57;;;;;;;10.75;2.72;;;8.30;87.60;;;;;;5066554;28;20028;-38
2021/03/27 12:50:29;;;;;;;10.50;2.70;;;8.50;86.50;;;;;;5067059;28;20475;-38
2021/03/27 12:53:18;;;;;;;14.05;2.83;;;8.70;85.90;;;;;;5066934;28;20478;-38
2021/03/27 12:56:01;;;;;;;8.00;2.20;;;8.70;84.30;;;;;;5066269;28;20043;-36
2021/03/27 12:59:05;;;;;;;8.40;2.10;;;8.80;84.60;;;;;;5066583;28;20028;-39
2021/03/27 13:01:48;;;;;;;8.25;1.92;;;8.70;83.90;;;;;;5046661;28;20048;-33
2021/03/27 13:04:21;;;;;;;9.20;1.88;;;8.70;83.50;;;;;;5065444;28;20497;-37
2021/03/27 13:07:10;;;;;;;;;;;8.50;82.10;;;;;;5067470;28;20027;-38
2021/03/27 13:10:13;;;;;;;11.07;2.20;;;8.40;83.00;;;;;;5066197;28;20310;-43
2021/03/27 13:13:02;;;;;;;14.75;2.90;;;8.30;82.20;;;;;;5066724;28;20099;-40
2021/03/27 13:15:50;;;;;;;11.65;3.00;;;8.40;82.70;;;;;;5056371;28;20043;-38
2021/03/27 13:18:26;;;;;;;13.50;3.35;;;8.40;83.00;;;;;;5066141;28;20051;-39
2021/03/27 13:21:11;;;;;;;10.20;2.58;;;8.50;83.50;;;;;;5066571;28;20027;-34
2021/03/27 13:23:48;;;;;;;11.20;2.63;;;8.70;83.30;;;;;;5065995;28;20040;-37
2021/03/27 13:26:28;;;;;;;6.97;1.75;;;8.90;83.00;;;;;;5066827;28;20103;-36
2021/03/27 13:29:32;;;;;;;8.98;2.22;;;9.00;82.20;;;;;;5065954;28;20393;-37
2021/03/27 13:32:00;;;;;;;14.05;2.70;;;9.10;80.20;;;;;;5065851;28;20044;-38
2021/03/27 13:34:29;;;;;;;9.43;2.30;;;9.30;79.60;;;;;;5065819;28;20649;-38
2021/03/27 13:37:04;;;;;;;9.15;2.25;;;9.30;78.30;;;;;;5066131;28;20028;-38
2021/03/27 13:39:43;;;;;;;10.18;2.15;;;9.50;79.50;;;;;;5066539;28;20043;-40
2021/03/27 13:42:34;;;;;;;9.77;2.25;;;9.70;78.70;;;;;;5066769;28;20036;-37
2021/03/27 13:45:13;;;;;;;11.27;2.28;;;9.90;77.40;;;;;;5063923;28;20036;-39
2021/03/27 13:47:55;;;;;;;11.75;2.10;;;10.00;74.40;;;;;;5064962;28;20103;-39
2021/03/27 13:50:30;;;;;;;8.18;2.55;;;10.10;74.20;;;;;;5064747;28;20093;-38
2021/03/27 13:53:07;;;;;;;9.95;2.03;;;10.00;74.70;;;;;;5063619;28;20052;-36
2021/03/27 13:55:55;;;;;;;7.70;2.10;;;10.00;75.10;;;;;;5064653;28;20436;-39
2021/03/27 13:58:33;;;;;;;7.25;2.10;;;10.00;75.20;;;;;;5045954;28;20127;-37
2021/03/27 14:01:28;;;;;;;8.88;2.10;;;10.00;74.30;;;;;;5062920;28;20067;-38
2021/03/27 14:04:07;;;;;;;10.13;2.03;;;10.00;74.10;;;;;;5065831;28;20032;-38
2021/03/27 14:07:03;;;;;;;10.50;1.73;;;10.00;74.80;;;;;;5064190;28;20116;-37
2021/03/27 14:09:42;;;;;;;11.18;2.45;;;10.00;75.20;;;;;;5065333;28;20029;-36
2021/03/27 14:12:21;;;;;;;12.02;2.65;;;10.10;76.00;;;;;;5065594;28;20039;-38
2021/03/27 14:15:05;;;;;;;10.13;2.53;;;10.10;75.80;;;;;;5064770;28;20566;-38
2021/03/27 14:17:39;;;;;;;8.93;2.10;;;10.00;75.00;;;;;;5054935;28;20028;-38
2021/03/27 14:20:39;;;;;;;11.02;2.35;;;9.90;74.90;;;;;;5064837;28;20559;-35